Portada
METAR-TAF:

METAR-TAF

Aeropuertos :

Ciudad de Kuwait, Kuwait

Aeropuerto Internacional de Kuwait

latitud: 29-13N, longitud: 047-59E, altitud: 55 m

Observación

El informe se hizo hace 1 hora y 7 minutos, a las 22:00 UTC
Viento 4 kt del sur-sureste
Temperatura 15°C
Humedad 59%
Presión 1018 hPa
Visibilidad 10 km o más
sin nubes por debajo de 1500 m y sin presencia de cumulonimbus.

METAR: OKBK 172200Z 16004KT CAVOK 15/07 Q1018 NOSIG

Hora: 02:07 (23:07 UTC)

Pronóstico

El informe se hizo hace 6 horas y 22 minutos, a las 16:45 UTC
Pronóstico válido del 17 a las 18 UTC al 18 a las 24 UTC
Viento 3 kt con dirección variable
Visibilidad: 7000 m
Cielo despejado

TAF: OKBK 171645Z 1718/1824 VRB03KT 7000 SKC

Observaciones y pronósticos meteorológicos de más de 4000 aeropuertos (mensajes METAR y TAF).

Los puntos amarillos y rojos representan las estaciones disponibles.

Ponga el ratón en el punto deseado para ver el nombre de la estación.

Haga clic para ver las observaciones y los pronósticos meteorológicos.

Para cambiar el mapa : haga clic en los botones verdes con una cruz de color negro para hacer un zoom, en el botón verde con un guión para alejar o en las flechas verdes para mapas adyacentes.


METAR-TAF: